Adriatic Princess — IVPQ — position and weather

sailwx.info

Track history (hours):
 
Tides and Currents Weather Stations Pressure Air Temp Water Temp Dewpoint Dewpoint Depression Visibility Wind Speed Wind Dir Waves Ship Positions

Adriatic Princess

Last reported at 2018-Mar-09 17:21 UTC. Time now 2018-Apr-23 17:12 UTC.
Position N 40°49' E 014°07'.
Warning: this ship's position is 44 days out of date.

Length 32 m; draft 1.8 m.

Type: Ship (hazmat cat B). MMSI: 247165700.

Date/timePositionNaut miles runAvg speedWind from/ knotsBaromVisibWave heightAir tempDewpointWater temp
2018-Mar-09 17:21N 40°49' E 014°07'0 0.0
2018-Mar-09 16:59N 40°49' E 014°07'2 3.0
2018-Mar-09 16:26N 40°48' E 014°06'612.9
2018-Mar-09 15:59N 40°46' E 013°59'2 5.0
2018-Mar-09 15:30N 40°45' E 013°56'0 0.0
2018-Mar-09 14:43N 40°45' E 013°56'0 0.0
2018-Mar-09 14:16N 40°45' E 013°56'0 0.0
2018-Mar-09 13:46N 40°45' E 013°56'0 0.0
2018-Mar-09 13:30N 40°45' E 013°56'0 0.0
2018-Mar-09 12:59N 40°45' E 013°56'612.6
2018-Mar-09 12:30N 40°47' E 014°04'3 6.5
2018-Mar-09 11:59N 40°49' E 014°06'913.0
2018-Mar-09 11:20N 40°45' E 013°57'0 1.3
2018-Mar-09 11:00N 40°45' E 013°56'4 7.8
2018-Mar-09 10:30N 40°46' E 014°01'6 8.7
2018-Mar-09 09:52N 40°49' E 014°07'0 0.5
2018-Mar-09 09:30N 40°49' E 014°07'510.8
2018-Mar-09 09:00N 40°46' E 014°01'3 4.6
2018-Mar-09 08:22N 40°45' E 013°57'513.7
2018-Mar-09 08:00N 40°46' E 014°04'  
2018-Mar-05 12:42N 40°49' E 014°07'3 3.8
2018-Mar-05 11:54N 40°47' E 014°05'614.7
2018-Mar-05 11:30N 40°45' E 013°58'  
2018-Feb-28 15:09N 40°49' E 014°07'0 0.0
2018-Feb-28 14:50N 40°49' E 014°07'0 0.0
2018-Feb-28 14:26N 40°49' E 014°07'0 0.0
2018-Feb-28 13:54N 40°49' E 014°07'0 0.0
2018-Feb-28 13:30N 40°49' E 014°07'0 0.0
2018-Feb-28 12:58N 40°49' E 014°07'0 0.0
2018-Feb-28 12:24N 40°49' E 014°07'0 0.0
2018-Feb-28 11:20N 40°49' E 014°07'0 0.0
2018-Feb-28 10:55N 40°49' E 014°07'0 0.1
2018-Feb-28 09:30N 40°49' E 014°07'911.1
2018-Feb-28 08:40N 40°45' E 013°56'0 0.0
2018-Feb-28 08:29N 40°45' E 013°56'510.3
2018-Feb-28 08:00N 40°46' E 014°03'4 7.2
2018-Feb-28 07:23N 40°49' E 014°07'  
Track history (hours):
 
Tides and Currents Weather Stations Pressure Air Temp Water Temp Dewpoint Dewpoint Depression Visibility Wind Speed Wind Dir Waves Ship Positions

Adriatic Princess

Last reported at 2018-Mar-09 17:21 UTC. Time now 2018-Apr-23 17:12 UTC.
Position N 40°49' E 014°07'.
Warning: this ship's position is 44 days out of date.

Length 32 m; draft 1.8 m.

Type: Ship (hazmat cat B). MMSI: 247165700.

Date/timePositionNaut miles runAvg speedWind from/ knotsBaromVisibWave heightAir tempDewpointWater temp
2018-Mar-09 17:21N 40°49' E 014°07'0 0.0
2018-Mar-09 16:59N 40°49' E 014°07'2 3.0
2018-Mar-09 16:26N 40°48' E 014°06'612.9
2018-Mar-09 15:59N 40°46' E 013°59'2 5.0
2018-Mar-09 15:30N 40°45' E 013°56'0 0.0
2018-Mar-09 14:43N 40°45' E 013°56'0 0.0
2018-Mar-09 14:16N 40°45' E 013°56'0 0.0
2018-Mar-09 13:46N 40°45' E 013°56'0 0.0
2018-Mar-09 13:30N 40°45' E 013°56'0 0.0
2018-Mar-09 12:59N 40°45' E 013°56'612.6
2018-Mar-09 12:30N 40°47' E 014°04'3 6.5
2018-Mar-09 11:59N 40°49' E 014°06'913.0
2018-Mar-09 11:20N 40°45' E 013°57'0 1.3
2018-Mar-09 11:00N 40°45' E 013°56'4 7.8
2018-Mar-09 10:30N 40°46' E 014°01'6 8.7
2018-Mar-09 09:52N 40°49' E 014°07'0 0.5
2018-Mar-09 09:30N 40°49' E 014°07'510.8
2018-Mar-09 09:00N 40°46' E 014°01'3 4.6
2018-Mar-09 08:22N 40°45' E 013°57'513.7
2018-Mar-09 08:00N 40°46' E 014°04'  
2018-Mar-05 12:42N 40°49' E 014°07'3 3.8
2018-Mar-05 11:54N 40°47' E 014°05'614.7
2018-Mar-05 11:30N 40°45' E 013°58'  
2018-Feb-28 15:09N 40°49' E 014°07'0 0.0
2018-Feb-28 14:50N 40°49' E 014°07'0 0.0
2018-Feb-28 14:26N 40°49' E 014°07'0 0.0
2018-Feb-28 13:54N 40°49' E 014°07'0 0.0
2018-Feb-28 13:30N 40°49' E 014°07'0 0.0
2018-Feb-28 12:58N 40°49' E 014°07'0 0.0
2018-Feb-28 12:24N 40°49' E 014°07'0 0.0
2018-Feb-28 11:20N 40°49' E 014°07'0 0.0
2018-Feb-28 10:55N 40°49' E 014°07'0 0.1
2018-Feb-28 09:30N 40°49' E 014°07'911.1
2018-Feb-28 08:40N 40°45' E 013°56'0 0.0
2018-Feb-28 08:29N 40°45' E 013°56'510.3
2018-Feb-28 08:00N 40°46' E 014°03'4 7.2
2018-Feb-28 07:23N 40°49' E 014°07'  

Dump ship's entire track history